Time;durP1;ratioP1;P1;durP2;ratioP2;P2;SDS_P1;SDS_P2;PMS_P1;PMS_P2;Temp;Humidity;BMP_temperature;BMP_pressure;BME280_temperature;BME280_humidity;BME280_pressure;Samples;Min_cycle;Max_cycle;Signal;HPM_P1;HPM_P2
2024/02/06 00:01:08;;;;;;;18.70;6.13;;;;;;;;;;5109273;28;20027;-60
2024/02/06 00:03:33;;;;;;;14.70;6.17;;;;;;;;;;5115714;28;20039;-61
2024/02/06 00:05:59;;;;;;;13.80;6.47;;;;;;;;;;5105728;28;20273;-61
2024/02/06 00:08:24;;;;;;;14.27;5.90;;;;;;;;;;5114527;28;20092;-61
2024/02/06 00:10:50;;;;;;;22.53;6.70;;;;;;;;;;5115830;28;20047;-60
2024/02/06 00:13:15;;;;;;;14.40;6.22;;;;;;;;;;5116239;28;20407;-61
2024/02/06 00:15:41;;;;;;;11.73;6.13;;;;;;;;;;5109686;28;20028;-60
2024/02/06 00:18:07;;;;;;;21.77;6.18;;;;;;;;;;5118894;28;20041;-61
2024/02/06 00:20:32;;;;;;;23.80;6.87;;;;;;;;;;5107214;28;20110;-61
2024/02/06 00:22:58;;;;;;;14.13;5.82;;;;;;;;;;5114500;28;20043;-60
2024/02/06 00:25:23;;;;;;;16.05;7.07;;;;;;;;;;5105257;28;20045;-60
2024/02/06 00:27:51;;;;;;;22.10;7.13;;;;;;;;;;5109687;28;20099;-61
2024/02/06 00:30:17;;;;;;;22.83;8.10;;;;;;;;;;5104743;28;20086;-60
2024/02/06 00:32:43;;;;;;;29.83;7.97;;;;;;;;;;5106835;28;20265;-60
2024/02/06 00:35:09;;;;;;;19.20;7.93;;;;;;;;;;5115924;28;20261;-61
2024/02/06 00:37:34;;;;;;;18.03;8.77;;;;;;;;;;5121569;28;20035;-60
2024/02/06 00:40:00;;;;;;;16.87;8.33;;;;;;;;;;5115330;28;20035;-61
2024/02/06 00:42:26;;;;;;;23.15;9.40;;;;;;;;;;5110170;28;20060;-61
2024/02/06 00:44:51;;;;;;;23.17;8.60;;;;;;;;;;5101393;28;20047;-61
2024/02/06 00:47:17;;;;;;;26.90;9.45;;;;;;;;;;5118270;28;20027;-62
2024/02/06 00:49:42;;;;;;;19.80;8.90;;;;;;;;;;5118532;28;20062;-60
2024/02/06 00:52:08;;;;;;;19.35;8.82;;;;;;;;;;5118362;28;20031;-60
2024/02/06 00:54:33;;;;;;;18.20;7.23;;;;;;;;;;5117415;28;20048;-61
2024/02/06 00:56:58;;;;;;;19.00;7.50;;;;;;;;;;5107919;28;20056;-61
2024/02/06 00:59:24;;;;;;;22.20;8.63;;;;;;;;;;5117423;28;20049;-61
2024/02/06 01:01:50;;;;;;;21.20;8.40;;;;;;;;;;5110608;28;20061;-60
2024/02/06 01:04:15;;;;;;;;;;;;;;;;;;5107329;28;20024;-61
2024/02/06 01:06:41;;;;;;;20.77;7.60;;;;;;;;;;5117811;28;19958;-61
2024/02/06 01:09:06;;;;;;;23.77;7.40;;;;;;;;;;5113996;28;20028;-60
2024/02/06 01:11:31;;;;;;;16.90;7.20;;;;;;;;;;5101473;28;20102;-60
2024/02/06 01:13:57;;;;;;;21.63;6.63;;;;;;;;;;5112320;28;20058;-61
2024/02/06 01:16:22;;;;;;;17.15;7.65;;;;;;;;;;5115052;28;20027;-60
2024/02/06 01:18:48;;;;;;;17.03;6.37;;;;;;;;;;5114175;28;20040;-61
2024/02/06 01:21:13;;;;;;;15.18;6.82;;;;;;;;;;5114791;28;20039;-60
2024/02/06 01:23:38;;;;;;;18.00;7.40;;;;;;;;;;5114459;28;20051;-61
2024/02/06 01:26:03;;;;;;;19.23;7.23;;;;;;;;;;5097181;28;20040;-61
2024/02/06 01:28:29;;;;;;;15.70;6.47;;;;;;;;;;5115036;28;20032;-60
2024/02/06 01:30:54;;;;;;;20.33;6.53;;;;;;;;;;5104374;28;20044;-60
2024/02/06 01:33:20;;;;;;;18.60;6.13;;;;;;;;;;5113407;28;20036;-61
2024/02/06 01:35:45;;;;;;;16.90;6.73;;;;;;;;;;5113433;28;20043;-62
2024/02/06 01:38:12;;;;;;;18.87;6.70;;;;;;;;;;5106778;28;20042;-60
2024/02/06 01:40:44;;;;;;;15.77;6.00;;;;;;;;;;5119104;28;20020;-60
2024/02/06 01:43:10;;;;;;;18.73;7.87;;;;;;;;;;5108112;28;20262;-61
2024/02/06 01:45:35;;;;;;;24.00;6.00;;;;;;;;;;5109155;28;20260;-61
2024/02/06 01:48:01;;;;;;;28.70;6.00;;;;;;;;;;5115471;28;20047;-60
2024/02/06 01:50:26;;;;;;;23.58;6.63;;;;;;;;;;5113361;28;20028;-60
2024/02/06 01:52:52;;;;;;;19.23;6.20;;;;;;;;;;5105638;28;20039;-60
2024/02/06 01:55:18;;;;;;;14.50;5.50;;;;;;;;;;5109360;28;20080;-61
2024/02/06 01:57:45;;;;;;;21.57;5.80;;;;;;;;;;5107939;28;20031;-61
2024/02/06 02:00:11;;;;;;;16.30;5.90;;;;;;;;;;5119161;28;20252;-61
2024/02/06 02:02:39;;;;;;;17.07;5.50;;;;;;;;;;5116623;28;20267;-60
2024/02/06 02:05:06;;;;;;;22.23;5.63;;;;;;;;;;5114474;28;20261;-61
2024/02/06 02:07:32;;;;;;;18.30;5.70;;;;;;;;;;5106656;28;20036;-60
2024/02/06 02:09:58;;;;;;;14.45;4.32;;;;;;;;;;5106993;28;20289;-60
2024/02/06 02:12:24;;;;;;;24.23;6.15;;;;;;;;;;5117134;28;20032;-60
2024/02/06 02:14:49;;;;;;;22.90;5.20;;;;;;;;;;5114476;28;20040;-60
2024/02/06 02:17:14;;;;;;;18.63;5.53;;;;;;;;;;5112266;28;20495;-60
2024/02/06 02:19:40;;;;;;;16.23;4.57;;;;;;;;;;5113894;28;20024;-60
2024/02/06 02:22:05;;;;;;;13.97;3.80;;;;;;;;;;5119780;28;20023;-60
2024/02/06 02:24:31;;;;;;;29.25;6.55;;;;;;;;;;5119153;28;20032;-61
2024/02/06 02:26:56;;;;;;;20.10;5.10;;;;;;;;;;5102035;28;20058;-61
2024/02/06 02:29:22;;;;;;;14.90;4.53;;;;;;;;;;5102097;28;20036;-60
2024/02/06 02:31:48;;;;;;;9.57;4.32;;;;;;;;;;5105104;28;20028;-61
2024/02/06 02:34:14;;;;;;;22.93;5.60;;;;;;;;;;5109334;28;20028;-60
2024/02/06 02:36:40;;;;;;;14.90;4.10;;;;;;;;;;5113999;28;20329;-60
2024/02/06 02:39:06;;;;;;;17.87;5.17;;;;;;;;;;5110003;28;20040;-60
2024/02/06 02:41:31;;;;;;;14.87;4.67;;;;;;;;;;5114001;28;20087;-61
2024/02/06 02:43:57;;;;;;;19.88;4.57;;;;;;;;;;5121601;28;20058;-61
2024/02/06 02:46:22;;;;;;;17.33;4.10;;;;;;;;;;5112880;28;20130;-60
2024/02/06 02:48:48;;;;;;;13.90;4.05;;;;;;;;;;5116148;28;20079;-61
2024/02/06 02:51:13;;;;;;;18.30;4.47;;;;;;;;;;5113499;28;20050;-61
2024/02/06 02:53:39;;;;;;;35.80;5.38;;;;;;;;;;5117300;28;20030;-61
2024/02/06 02:56:05;;;;;;;22.60;5.30;;;;;;;;;;5116159;28;20043;-61
2024/02/06 02:58:30;;;;;;;20.48;5.13;;;;;;;;;;5118750;28;20032;-60
2024/02/06 03:00:55;;;;;;;26.30;5.77;;;;;;;;;;5113189;28;20033;-61
2024/02/06 03:03:21;;;;;;;18.20;5.25;;;;;;;;;;5122848;28;20043;-61
2024/02/06 03:05:46;;;;;;;12.85;4.88;;;;;;;;;;5110650;28;20115;-61
2024/02/06 03:08:12;;;;;;;16.17;5.10;;;;;;;;;;5116818;28;20058;-61
2024/02/06 03:10:38;;;;;;;14.73;4.80;;;;;;;;;;5108493;28;20025;-61
2024/02/06 03:13:03;;;;;;;27.08;6.05;;;;;;;;;;5105785;28;20036;-61
2024/02/06 03:15:28;;;;;;;13.80;5.17;;;;;;;;;;5112690;28;20028;-60
2024/02/06 03:17:55;;;;;;;22.87;5.87;;;;;;;;;;5123751;28;20741;-61
2024/02/06 03:20:21;;;;;;;19.40;5.30;;;;;;;;;;5108750;28;20265;-60
2024/02/06 03:22:47;;;;;;;25.43;5.57;;;;;;;;;;5114791;28;20253;-61
2024/02/06 03:25:12;;;;;;;18.37;6.13;;;;;;;;;;5108199;28;20267;-60
2024/02/06 03:27:41;;;;;;;22.50;4.67;;;;;;;;;;5120224;28;20307;-62
2024/02/06 03:30:07;;;;;;;14.20;5.20;;;;;;;;;;5131864;28;20055;-61
2024/02/06 03:32:33;;;;;;;19.83;5.87;;;;;;;;;;5116840;28;20256;-60
2024/02/06 03:34:58;;;;;;;17.57;4.80;;;;;;;;;;5112848;28;20300;-61
2024/02/06 03:37:24;;;;;;;14.47;5.00;;;;;;;;;;5117200;28;20039;-61
2024/02/06 03:39:49;;;;;;;14.82;5.22;;;;;;;;;;5116697;28;20232;-60
2024/02/06 03:42:15;;;;;;;23.77;5.47;;;;;;;;;;5116703;28;20066;-61
2024/02/06 03:44:40;;;;;;;14.45;5.47;;;;;;;;;;5116844;28;20028;-61
2024/02/06 03:47:06;;;;;;;23.95;6.38;;;;;;;;;;5101072;28;20040;-61
2024/02/06 03:49:31;;;;;;;19.83;5.03;;;;;;;;;;5113941;28;20065;-61
2024/02/06 03:51:57;;;;;;;21.27;5.10;;;;;;;;;;5113013;28;20401;-61
2024/02/06 03:54:22;;;;;;;16.17;5.25;;;;;;;;;;5121362;28;20263;-61
2024/02/06 03:56:48;;;;;;;12.17;5.20;;;;;;;;;;5109881;28;20048;-61
2024/02/06 03:59:14;;;;;;;;;;;;;;;;;;5106935;28;20019;-61
2024/02/06 04:01:40;;;;;;;16.00;6.03;;;;;;;;;;5101398;28;19945;-62
2024/02/06 04:04:05;;;;;;;15.27;5.83;;;;;;;;;;5107222;28;20042;-60
2024/02/06 04:06:31;;;;;;;18.45;5.43;;;;;;;;;;5108289;28;20027;-61
2024/02/06 04:08:57;;;;;;;22.98;6.53;;;;;;;;;;5123810;28;20039;-60
2024/02/06 04:11:22;;;;;;;27.90;6.97;;;;;;;;;;5104457;28;20040;-61
2024/02/06 04:13:48;;;;;;;24.67;5.60;;;;;;;;;;5110458;28;20063;-61
2024/02/06 04:16:13;;;;;;;25.85;6.35;;;;;;;;;;5114732;28;20028;-61
2024/02/06 04:18:39;;;;;;;17.40;5.68;;;;;;;;;;5115693;28;20028;-61
2024/02/06 04:21:04;;;;;;;14.47;5.80;;;;;;;;;;5125055;28;20049;-61
2024/02/06 04:23:31;;;;;;;21.17;5.55;;;;;;;;;;5110531;28;20055;-61
2024/02/06 04:25:56;;;;;;;23.00;6.20;;;;;;;;;;5114965;28;20048;-61
2024/02/06 04:28:22;;;;;;;21.33;6.30;;;;;;;;;;5106629;28;20047;-61
2024/02/06 04:30:47;;;;;;;18.50;6.23;;;;;;;;;;5122037;28;20061;-61
2024/02/06 04:33:13;;;;;;;16.47;5.60;;;;;;;;;;5115605;28;20260;-61
2024/02/06 04:35:38;;;;;;;23.80;6.73;;;;;;;;;;5113106;28;20352;-61
2024/02/06 04:38:07;;;;;;;16.77;5.77;;;;;;;;;;5109006;28;20039;-61
2024/02/06 04:40:33;;;;;;;22.60;5.70;;;;;;;;;;5110280;28;20062;-61
2024/02/06 04:42:58;;;;;;;18.13;5.10;;;;;;;;;;5109951;28;20339;-60
2024/02/06 04:45:24;;;;;;;16.33;5.82;;;;;;;;;;5113493;28;20024;-61
2024/02/06 04:47:50;;;;;;;25.83;6.20;;;;;;;;;;5109644;28;20059;-61
2024/02/06 04:50:18;;;;;;;21.83;6.85;;;;;;;;;;5121038;28;20028;-60
2024/02/06 04:52:44;;;;;;;20.37;6.20;;;;;;;;;;5115105;28;20032;-60
2024/02/06 04:55:10;;;;;;;28.42;7.70;;;;;;;;;;5115117;28;20263;-61
2024/02/06 04:57:35;;;;;;;24.33;6.00;;;;;;;;;;5115182;28;20042;-60
2024/02/06 05:00:00;;;;;;;25.40;5.90;;;;;;;;;;5118538;28;20031;-61
2024/02/06 05:02:26;;;;;;;17.13;6.47;;;;;;;;;;5120328;28;20059;-61
2024/02/06 05:04:52;;;;;;;21.80;6.55;;;;;;;;;;5114903;28;20028;-61
2024/02/06 05:07:17;;;;;;;20.57;6.03;;;;;;;;;;5114869;28;20115;-61
2024/02/06 05:09:42;;;;;;;18.10;5.87;;;;;;;;;;5102902;28;20292;-60
2024/02/06 05:12:08;;;;;;;17.90;5.53;;;;;;;;;;5109914;28;20031;-63
2024/02/06 05:14:34;;;;;;;23.07;5.40;;;;;;;;;;5106358;28;20028;-61
2024/02/06 05:16:59;;;;;;;24.80;6.30;;;;;;;;;;5115113;28;20031;-60
2024/02/06 05:19:24;;;;;;;22.60;5.67;;;;;;;;;;5114900;28;20032;-61
2024/02/06 05:21:50;;;;;;;22.70;6.28;;;;;;;;;;5115968;28;20040;-61
2024/02/06 05:24:16;;;;;;;29.33;8.00;;;;;;;;;;5114638;28;20053;-60
2024/02/06 05:26:42;;;;;;;33.88;7.10;;;;;;;;;;5117648;28;20032;-61
2024/02/06 05:29:07;;;;;;;24.45;6.78;;;;;;;;;;5106673;28;20103;-61
2024/02/06 05:31:33;;;;;;;19.60;6.20;;;;;;;;;;5126969;28;20035;-61
2024/02/06 05:33:58;;;;;;;19.67;5.78;;;;;;;;;;5114659;28;20024;-60
2024/02/06 05:36:25;;;;;;;23.13;6.53;;;;;;;;;;5123093;28;20027;-61
2024/02/06 05:38:50;;;;;;;22.40;5.72;;;;;;;;;;5108326;28;20059;-61
2024/02/06 05:41:17;;;;;;;26.77;6.80;;;;;;;;;;5119092;28;20046;-61
2024/02/06 05:43:42;;;;;;;21.47;6.20;;;;;;;;;;5103338;28;20103;-61
2024/02/06 05:46:08;;;;;;;24.13;6.47;;;;;;;;;;5109204;28;20031;-60
2024/02/06 05:48:34;;;;;;;18.08;7.20;;;;;;;;;;5112242;28;20036;-61
2024/02/06 05:50:59;;;;;;;24.53;6.67;;;;;;;;;;5113497;28;20055;-61
2024/02/06 05:53:25;;;;;;;24.15;6.90;;;;;;;;;;5105498;28;20257;-61
2024/02/06 05:55:50;;;;;;;21.30;6.33;;;;;;;;;;5109899;28;20066;-61
2024/02/06 05:58:16;;;;;;;23.17;6.27;;;;;;;;;;5113566;28;20260;-60
2024/02/06 06:00:41;;;;;;;21.37;6.67;;;;;;;;;;5115051;28;20287;-61
2024/02/06 06:03:07;;;;;;;17.85;6.05;;;;;;;;;;5109695;28;20039;-62
2024/02/06 06:05:33;;;;;;;24.57;8.47;;;;;;;;;;5107214;28;20032;-62
2024/02/06 06:07:58;;;;;;;21.98;6.28;;;;;;;;;;5113445;28;20099;-60
2024/02/06 06:10:23;;;;;;;19.13;6.60;;;;;;;;;;5114264;28;20043;-60
2024/02/06 06:12:49;;;;;;;27.20;6.50;;;;;;;;;;5096565;28;20028;-61
2024/02/06 06:15:15;;;;;;;25.65;7.47;;;;;;;;;;5102813;28;20076;-61
2024/02/06 06:17:41;;;;;;;23.38;7.25;;;;;;;;;;5119153;28;20032;-60
2024/02/06 06:20:06;;;;;;;24.00;6.30;;;;;;;;;;5112268;28;20075;-62
2024/02/06 06:22:32;;;;;;;24.30;6.70;;;;;;;;;;5115448;28;20264;-62
2024/02/06 06:24:57;;;;;;;28.73;7.10;;;;;;;;;;5113799;28;20047;-61
2024/02/06 06:27:23;;;;;;;21.27;5.83;;;;;;;;;;5101723;28;20029;-62
2024/02/06 06:29:48;;;;;;;29.50;8.27;;;;;;;;;;5113850;28;20047;-61
2024/02/06 06:32:14;;;;;;;23.55;5.80;;;;;;;;;;5116504;28;20050;-62
2024/02/06 06:34:40;;;;;;;27.88;7.13;;;;;;;;;;5109615;28;20054;-61
2024/02/06 06:37:06;;;;;;;;;;;;;;;;;;5112588;28;20032;-61
2024/02/06 06:39:31;;;;;;;22.73;6.33;;;;;;;;;;5108702;28;19958;-61
2024/02/06 06:41:56;;;;;;;23.27;6.63;;;;;;;;;;5113292;28;20039;-61
2024/02/06 06:44:22;;;;;;;21.43;5.70;;;;;;;;;;5108549;28;20066;-61
2024/02/06 06:46:49;;;;;;;29.10;5.22;;;;;;;;;;5108059;28;20316;-62
2024/02/06 06:49:15;;;;;;;;;;;;;;;;;;5111802;28;20046;-62
2024/02/06 06:51:40;;;;;;;25.40;5.23;;;;;;;;;;5114382;28;19951;-63
2024/02/06 06:54:05;;;;;;;18.33;6.07;;;;;;;;;;5108444;28;20103;-61
2024/02/06 06:56:31;;;;;;;24.27;5.65;;;;;;;;;;5115458;28;20043;-62
2024/02/06 06:58:56;;;;;;;30.02;5.80;;;;;;;;;;5104380;28;20088;-61
2024/02/06 07:01:22;;;;;;;24.80;6.10;;;;;;;;;;5107811;28;20028;-61
2024/02/06 07:03:48;;;;;;;26.23;5.80;;;;;;;;;;5124032;28;20048;-60
2024/02/06 07:06:13;;;;;;;27.50;5.07;;;;;;;;;;5103999;28;20310;-62
2024/02/06 07:08:38;;;;;;;29.77;5.90;;;;;;;;;;5121325;28;20314;-61
2024/02/06 07:11:04;;;;;;;15.77;4.00;;;;;;;;;;5116397;28;20269;-61
2024/02/06 07:13:31;;;;;;;21.83;5.30;;;;;;;;;;5114132;28;20024;-61
2024/02/06 07:15:56;;;;;;;25.73;5.50;;;;;;;;;;5105642;28;20028;-62
2024/02/06 07:18:22;;;;;;;34.67;6.87;;;;;;;;;;5121387;28;20290;-61
2024/02/06 07:20:48;;;;;;;19.50;4.90;;;;;;;;;;5106699;28;20273;-61
2024/02/06 07:23:13;;;;;;;22.45;5.50;;;;;;;;;;5110317;28;20090;-61
2024/02/06 07:25:38;;;;;;;35.43;6.17;;;;;;;;;;5110568;28;20047;-62
2024/02/06 07:28:06;;;;;;;27.63;6.03;;;;;;;;;;5116535;28;20119;-61
2024/02/06 07:30:32;;;;;;;38.27;6.73;;;;;;;;;;5114961;28;20039;-62
2024/02/06 07:32:58;;;;;;;22.27;5.60;;;;;;;;;;5115522;28;20260;-62
2024/02/06 07:35:24;;;;;;;26.25;6.78;;;;;;;;;;5116949;28;20092;-62
2024/02/06 07:37:49;;;;;;;28.90;7.10;;;;;;;;;;5117839;28;20028;-62
2024/02/06 07:40:14;;;;;;;28.50;7.10;;;;;;;;;;5113511;28;20028;-62
2024/02/06 07:42:40;;;;;;;27.43;6.67;;;;;;;;;;5110725;28;20036;-63
2024/02/06 07:45:05;;;;;;;26.63;6.37;;;;;;;;;;5111293;28;20074;-62
2024/02/06 07:47:31;;;;;;;34.72;6.82;;;;;;;;;;5117373;28;20053;-62
2024/02/06 07:49:57;;;;;;;34.67;7.72;;;;;;;;;;5115592;28;20090;-62
2024/02/06 07:52:23;;;;;;;27.33;7.05;;;;;;;;;;5115622;28;20034;-62
2024/02/06 07:54:53;;;;;;;28.50;6.43;;;;;;;;;;5108770;28;20043;-62
2024/02/06 07:57:18;;;;;;;30.52;6.85;;;;;;;;;;5107486;28;20348;-61
2024/02/06 07:59:46;;;;;;;26.48;4.55;;;;;;;;;;5115360;28;20448;-62
2024/02/06 08:02:11;;;;;;;26.00;6.10;;;;;;;;;;5108811;28;20067;-62
2024/02/06 08:04:37;;;;;;;28.13;5.33;;;;;;;;;;5110356;28;20320;-61
2024/02/06 08:07:03;;;;;;;18.05;5.05;;;;;;;;;;5110073;28;20078;-62
2024/02/06 08:09:28;;;;;;;29.23;6.47;;;;;;;;;;5126827;27;20063;-61
2024/02/06 08:11:54;;;;;;;27.35;7.45;;;;;;;;;;5114632;28;20063;-61
2024/02/06 08:14:19;;;;;;;28.53;5.30;;;;;;;;;;5104633;28;20055;-62
2024/02/06 08:16:46;;;;;;;17.80;4.40;;;;;;;;;;5102886;28;20040;-62
2024/02/06 08:19:13;;;;;;;28.13;5.43;;;;;;;;;;5115415;28;20027;-62
2024/02/06 08:21:38;;;;;;;;;;;;;;;;;;5113901;28;20264;-62
2024/02/06 08:24:04;;;;;;;18.93;4.80;;;;;;;;;;5120534;28;19908;-62
2024/02/06 08:26:30;;;;;;;30.75;5.60;;;;;;;;;;5115230;28;20043;-62
2024/02/06 08:28:55;;;;;;;27.55;5.75;;;;;;;;;;5103627;28;20099;-61
2024/02/06 08:31:22;;;;;;;25.85;6.85;;;;;;;;;;5097764;28;20024;-62
2024/02/06 08:33:49;;;;;;;27.45;5.40;;;;;;;;;;5132942;27;20052;-61
2024/02/06 08:36:15;;;;;;;20.63;5.70;;;;;;;;;;5106966;28;20032;-62
2024/02/06 08:38:40;;;;;;;24.88;6.40;;;;;;;;;;5116326;28;20286;-62
2024/02/06 08:41:06;;;;;;;30.57;5.57;;;;;;;;;;5115413;28;20043;-62
2024/02/06 08:43:31;;;;;;;24.15;5.75;;;;;;;;;;5103466;28;20024;-62
2024/02/06 08:45:57;;;;;;;21.53;6.07;;;;;;;;;;5104394;28;20048;-62
2024/02/06 08:48:22;;;;;;;28.40;5.78;;;;;;;;;;5109545;28;20064;-62
2024/02/06 08:50:49;;;;;;;30.75;6.20;;;;;;;;;;5114203;28;20070;-62
2024/02/06 08:53:16;;;;;;;28.63;5.57;;;;;;;;;;5113873;28;20051;-62
2024/02/06 08:55:43;;;;;;;20.40;4.40;;;;;;;;;;5103100;28;20253;-62
2024/02/06 08:58:08;;;;;;;31.90;5.20;;;;;;;;;;5102338;28;20280;-61
2024/02/06 09:00:33;;;;;;;29.13;5.70;;;;;;;;;;5102488;28;20025;-62
2024/02/06 09:02:59;;;;;;;19.15;4.55;;;;;;;;;;5104907;28;20287;-62
2024/02/06 09:05:25;;;;;;;18.03;5.27;;;;;;;;;;5108918;28;20056;-61
2024/02/06 09:07:50;;;;;;;21.37;4.23;;;;;;;;;;5107394;28;20273;-62
2024/02/06 09:10:15;;;;;;;15.87;4.20;;;;;;;;;;5100626;28;20025;-61
2024/02/06 09:12:40;;;;;;;14.43;3.83;;;;;;;;;;5113976;28;20049;-62
2024/02/06 09:15:06;;;;;;;23.98;4.78;;;;;;;;;;5119676;28;20087;-62
2024/02/06 09:17:32;;;;;;;18.98;4.55;;;;;;;;;;5115075;28;20032;-62
2024/02/06 09:19:57;;;;;;;15.57;4.50;;;;;;;;;;5120181;28;20099;-62
2024/02/06 09:22:23;;;;;;;16.27;3.67;;;;;;;;;;5101756;28;20028;-61
2024/02/06 09:24:49;;;;;;;19.53;3.50;;;;;;;;;;5118344;28;20043;-61
2024/02/06 09:27:14;;;;;;;12.20;4.40;;;;;;;;;;5114548;28;20035;-61
2024/02/06 09:29:39;;;;;;;12.27;2.73;;;;;;;;;;5120910;28;20039;-62
2024/02/06 09:32:05;;;;;;;16.17;3.80;;;;;;;;;;5112657;28;20027;-61
2024/02/06 09:34:30;;;;;;;16.20;3.77;;;;;;;;;;5113249;28;20032;-61
2024/02/06 09:36:55;;;;;;;16.73;3.00;;;;;;;;;;5101130;28;20028;-61
2024/02/06 09:39:21;;;;;;;14.30;3.20;;;;;;;;;;5120149;28;20032;-61
2024/02/06 09:41:46;;;;;;;11.70;3.13;;;;;;;;;;5099801;28;20066;-61
2024/02/06 09:44:12;;;;;;;13.30;3.53;;;;;;;;;;5098790;28;20028;-61
2024/02/06 09:46:37;;;;;;;12.90;3.40;;;;;;;;;;5113939;28;20324;-61
2024/02/06 09:49:02;;;;;;;14.33;3.73;;;;;;;;;;5111482;28;20046;-61
2024/02/06 09:51:29;;;;;;;22.67;3.27;;;;;;;;;;5110638;28;20029;-61
2024/02/06 09:53:54;;;;;;;;;;;;;;;;;;5109444;28;20028;-61
2024/02/06 09:56:20;;;;;;;15.93;3.40;;;;;;;;;;5109497;28;20000;-60
2024/02/06 09:58:46;;;;;;;13.38;3.42;;;;;;;;;;5110861;28;20045;-61
2024/02/06 10:01:12;;;;;;;17.97;3.23;;;;;;;;;;5112197;28;20084;-61
2024/02/06 10:03:39;;;;;;;16.73;3.55;;;;;;;;;;5109636;28;20268;-61
2024/02/06 10:06:07;;;;;;;27.47;5.33;;;;;;;;;;5104283;28;20115;-62
2024/02/06 10:08:32;;;;;;;17.43;3.80;;;;;;;;;;5119351;28;20339;-62
2024/02/06 10:10:58;;;;;;;17.17;4.40;;;;;;;;;;5097471;28;20265;-61
2024/02/06 10:13:24;;;;;;;21.63;4.00;;;;;;;;;;5099279;28;20027;-61
2024/02/06 10:15:50;;;;;;;21.13;4.83;;;;;;;;;;5105719;28;20263;-62
2024/02/06 10:18:16;;;;;;;24.15;4.90;;;;;;;;;;5104823;28;20035;-62
2024/02/06 10:20:42;;;;;;;20.02;4.25;;;;;;;;;;5113468;28;20036;-61
2024/02/06 10:23:15;;;;;;;18.73;4.53;;;;;;;;;;5114775;28;20063;-61
2024/02/06 10:25:42;;;;;;;29.50;4.87;;;;;;;;;;5118147;28;20028;-62
2024/02/06 10:28:07;;;;;;;19.70;5.47;;;;;;;;;;5113126;28;20273;-62
2024/02/06 10:30:34;;;;;;;21.17;4.63;;;;;;;;;;5112159;28;20057;-62
2024/02/06 10:33:09;;;;;;;16.60;3.67;;;;;;;;;;5114050;28;20028;-61
2024/02/06 10:35:35;;;;;;;24.83;4.10;;;;;;;;;;5121417;28;20093;-63
2024/02/06 10:38:02;;;;;;;17.43;3.70;;;;;;;;;;5118979;28;20024;-61
2024/02/06 10:40:28;;;;;;;20.67;4.53;;;;;;;;;;5124991;28;20099;-61
2024/02/06 10:42:55;;;;;;;16.15;3.60;;;;;;;;;;5117805;28;20264;-61
2024/02/06 10:45:20;;;;;;;24.63;4.72;;;;;;;;;;5124291;28;20027;-62
2024/02/06 10:47:55;;;;;;;16.73;3.80;;;;;;;;;;5104074;28;20028;-61
2024/02/06 10:50:23;;;;;;;16.13;3.30;;;;;;;;;;5119398;28;20355;-61
2024/02/06 10:52:48;;;;;;;23.70;4.70;;;;;;;;;;5111429;28;20144;-63
2024/02/06 10:55:13;;;;;;;15.50;3.58;;;;;;;;;;5124422;28;20025;-61
2024/02/06 10:57:41;;;;;;;13.45;4.00;;;;;;;;;;5112490;28;20028;-62
2024/02/06 11:00:11;;;;;;;11.53;4.30;;;;;;;;;;5128901;28;20086;-62
2024/02/06 11:02:38;;;;;;;15.20;3.73;;;;;;;;;;5117832;28;20030;-61
2024/02/06 11:05:16;;;;;;;26.90;3.67;;;;;;;;;;5127165;28;20031;-63
2024/02/06 11:07:50;;;;;;;17.90;4.10;;;;;;;;;;5111783;28;20058;-62
2024/02/06 11:10:17;;;;;;;19.33;3.60;;;;;;;;;;5119051;28;20032;-62
2024/02/06 11:12:44;;;;;;;19.00;3.30;;;;;;;;;;5103974;28;20039;-62
2024/02/06 11:15:10;;;;;;;25.38;4.32;;;;;;;;;;5119791;28;20043;-61
2024/02/06 11:17:37;;;;;;;15.38;3.92;;;;;;;;;;5110479;28;20016;-62
2024/02/06 11:20:09;;;;;;;12.73;3.53;;;;;;;;;;5108964;28;20040;-62
2024/02/06 11:22:40;;;;;;;14.23;3.47;;;;;;;;;;5117208;28;20260;-61
2024/02/06 11:25:07;;;;;;;14.33;3.10;;;;;;;;;;5117134;28;20099;-62
2024/02/06 11:27:34;;;;;;;17.80;4.03;;;;;;;;;;5118487;28;20256;-62
2024/02/06 11:30:00;;;;;;;10.95;2.88;;;;;;;;;;5116691;28;20280;-61
2024/02/06 11:32:26;;;;;;;;;;;;;;;;;;5110028;28;20061;-62
2024/02/06 11:34:55;;;;;;;11.77;2.40;;;;;;;;;;5110896;28;19907;-62
2024/02/06 11:37:27;;;;;;;18.77;3.13;;;;;;;;;;5117005;28;20028;-61
2024/02/06 11:40:06;;;;;;;15.43;4.07;;;;;;;;;;5116376;28;20436;-62
2024/02/06 11:42:33;;;;;;;7.23;2.47;;;;;;;;;;5116085;28;20339;-61
2024/02/06 11:45:25;;;;;;;10.07;2.75;;;;;;;;;;5119291;28;20292;-62
2024/02/06 11:47:57;;;;;;;14.10;3.60;;;;;;;;;;5113193;28;20031;-62
2024/02/06 11:50:26;;;;;;;11.40;2.30;;;;;;;;;;5122871;28;20284;-61
2024/02/06 11:53:02;;;;;;;10.70;3.00;;;;;;;;;;5116615;28;20345;-62
2024/02/06 11:55:28;;;;;;;11.60;2.90;;;;;;;;;;5121312;28;20253;-62
2024/02/06 11:57:54;;;;;;;13.73;2.85;;;;;;;;;;5121070;28;20265;-62
2024/02/06 12:00:20;;;;;;;8.17;2.70;;;;;;;;;;5120143;28;20062;-62
2024/02/06 12:02:52;;;;;;;13.23;2.90;;;;;;;;;;5112796;28;20269;-62
2024/02/06 12:05:18;;;;;;;18.83;3.43;;;;;;;;;;5110831;28;20269;-61
2024/02/06 12:07:53;;;;;;;16.53;2.57;;;;;;;;;;5116313;28;20314;-61
2024/02/06 12:10:30;;;;;;;6.63;2.80;;;;;;;;;;5117084;28;20272;-61
2024/02/06 12:13:00;;;;;;;12.10;3.22;;;;;;;;;;5104140;28;20252;-61
2024/02/06 12:15:27;;;;;;;19.13;2.90;;;;;;;;;;5127249;28;20150;-62
2024/02/06 12:17:53;;;;;;;16.33;3.20;;;;;;;;;;5116151;28;20266;-62
2024/02/06 12:20:19;;;;;;;16.98;3.08;;;;;;;;;;5115138;28;20035;-61
2024/02/06 12:22:57;;;;;;;15.57;3.40;;;;;;;;;;5116374;28;20032;-61
2024/02/06 12:25:23;;;;;;;16.00;4.23;;;;;;;;;;5123729;28;20255;-62
2024/02/06 12:28:02;;;;;;;23.55;4.20;;;;;;;;;;5120645;28;20264;-61
2024/02/06 12:30:29;;;;;;;16.00;3.60;;;;;;;;;;5127429;28;20036;-61
2024/02/06 12:32:58;;;;;;;16.58;3.35;;;;;;;;;;5115947;28;20280;-63
2024/02/06 12:35:23;;;;;;;20.33;3.80;;;;;;;;;;5120534;28;20028;-65
2024/02/06 12:37:49;;;;;;;15.40;2.80;;;;;;;;;;5110028;28;20296;-62
2024/02/06 12:40:17;;;;;;;18.42;4.07;;;;;;;;;;5116581;28;20089;-63
2024/02/06 12:42:46;;;;;;;18.67;3.63;;;;;;;;;;5103416;28;20044;-61
2024/02/06 12:45:13;;;;;;;15.93;3.07;;;;;;;;;;5111141;28;20028;-62
2024/02/06 12:47:39;;;;;;;12.17;3.10;;;;;;;;;;5108472;28;20280;-61
2024/02/06 12:50:05;;;;;;;24.27;4.25;;;;;;;;;;5115161;28;20284;-61
2024/02/06 12:52:32;;;;;;;17.42;3.33;;;;;;;;;;5115366;28;20100;-62
2024/02/06 12:54:58;;;;;;;11.17;2.80;;;;;;;;;;5115165;28;20027;-61
2024/02/06 12:57:24;;;;;;;15.95;3.50;;;;;;;;;;5115762;28;20096;-62
2024/02/06 12:59:49;;;;;;;19.70;3.30;;;;;;;;;;5114727;28;20035;-62
2024/02/06 13:02:15;;;;;;;14.80;3.83;;;;;;;;;;5117011;28;20308;-62
2024/02/06 13:04:40;;;;;;;21.60;4.15;;;;;;;;;;5119058;28;20260;-61
2024/02/06 13:07:16;;;;;;;16.17;2.40;;;;;;;;;;5122148;28;20040;-62
2024/02/06 13:09:41;;;;;;;18.37;4.70;;;;;;;;;;5109496;28;20042;-62
2024/02/06 13:12:07;;;;;;;13.80;3.20;;;;;;;;;;5106549;28;20055;-62
2024/02/06 13:14:33;;;;;;;13.70;2.90;;;;;;;;;;5117685;28;20062;-63
2024/02/06 13:16:59;;;;;;;23.20;3.75;;;;;;;;;;5101623;28;20047;-61
2024/02/06 13:19:28;;;;;;;14.07;3.10;;;;;;;;;;5112876;28;20097;-62
2024/02/06 13:21:57;;;;;;;18.40;3.17;;;;;;;;;;5103336;28;20027;-61
2024/02/06 13:24:23;;;;;;;17.17;3.40;;;;;;;;;;5114782;28;20264;-61
2024/02/06 13:26:48;;;;;;;22.70;3.93;;;;;;;;;;5115034;28;20266;-62
2024/02/06 13:29:14;;;;;;;23.35;3.15;;;;;;;;;;5116660;28;20279;-62
2024/02/06 13:31:39;;;;;;;19.60;3.53;;;;;;;;;;5113711;28;20039;-61
2024/02/06 13:34:05;;;;;;;13.47;3.60;;;;;;;;;;5093708;28;20040;-61
2024/02/06 13:36:31;;;;;;;21.98;3.90;;;;;;;;;;5125497;28;20024;-60
2024/02/06 13:38:57;;;;;;;20.38;3.42;;;;;;;;;;5118284;28;20091;-61
2024/02/06 13:41:22;;;;;;;18.05;4.05;;;;;;;;;;5115238;28;20032;-62
2024/02/06 13:43:48;;;;;;;16.08;3.70;;;;;;;;;;5120645;28;20036;-62
2024/02/06 13:46:14;;;;;;;19.95;4.45;;;;;;;;;;5124072;28;20092;-62
2024/02/06 13:48:40;;;;;;;18.73;4.53;;;;;;;;;;5114712;28;20032;-61
2024/02/06 13:51:08;;;;;;;14.50;3.40;;;;;;;;;;5124787;28;20100;-61
2024/02/06 13:53:33;;;;;;;21.67;3.80;;;;;;;;;;5115179;28;20063;-62
2024/02/06 13:55:59;;;;;;;18.50;3.55;;;;;;;;;;5103688;28;20028;-61
2024/02/06 13:58:24;;;;;;;15.95;3.03;;;;;;;;;;5114450;28;20036;-62
2024/02/06 14:00:50;;;;;;;25.95;4.68;;;;;;;;;;5113767;28;20036;-61
2024/02/06 14:03:16;;;;;;;23.23;4.45;;;;;;;;;;5113810;28;20046;-62
2024/02/06 14:05:42;;;;;;;18.73;3.38;;;;;;;;;;5106460;28;20028;-61
2024/02/06 14:08:08;;;;;;;28.30;3.65;;;;;;;;;;5114344;28;20036;-61
2024/02/06 14:10:33;;;;;;;15.45;3.90;;;;;;;;;;5110936;28;20036;-62
2024/02/06 14:13:01;;;;;;;14.87;3.33;;;;;;;;;;5112729;28;20032;-61
2024/02/06 14:15:26;;;;;;;24.43;4.27;;;;;;;;;;5126261;28;20027;-61
2024/02/06 14:17:51;;;;;;;19.73;4.07;;;;;;;;;;5123404;28;20308;-61
2024/02/06 14:20:17;;;;;;;26.87;3.13;;;;;;;;;;5127705;28;20028;-62
2024/02/06 14:22:43;;;;;;;23.15;4.05;;;;;;;;;;5121962;28;20294;-61
2024/02/06 14:25:09;;;;;;;22.85;3.60;;;;;;;;;;5109904;28;20055;-61
2024/02/06 14:27:34;;;;;;;28.92;4.18;;;;;;;;;;5118363;28;20028;-61